Time;durP1;ratioP1;P1;durP2;ratioP2;P2;SDS_P1;SDS_P2;PMS_P1;PMS_P2;Temp;Humidity;BMP_temperature;BMP_pressure;BME280_temperature;BME280_humidity;BME280_pressure;Samples;Min_cycle;Max_cycle;Signal;HPM_P1;HPM_P2
2021/05/17 00:01:04;;;;;;;1.55;1.15;;;9.60;99.90;;;;;;5050792;28;20311;-70
2021/05/17 00:03:31;;;;;;;1.58;1.00;;;9.60;99.90;;;;;;5051028;28;20644;-70
2021/05/17 00:05:58;;;;;;;1.00;0.90;;;9.50;99.90;;;;;;5050792;28;20236;-70
2021/05/17 00:08:24;;;;;;;1.95;0.98;;;9.40;99.90;;;;;;5051016;28;20224;-70
2021/05/17 00:10:51;;;;;;;1.40;1.10;;;9.40;99.90;;;;;;5051210;28;20205;-69
2021/05/17 00:13:18;;;;;;;1.17;1.02;;;9.40;99.90;;;;;;5051167;28;20696;-69
2021/05/17 00:15:46;;;;;;;1.65;0.93;;;9.40;99.90;;;;;;5050851;28;20209;-70
2021/05/17 00:18:13;;;;;;;1.52;1.10;;;9.40;99.90;;;;;;5050090;28;20204;-70
2021/05/17 00:20:39;;;;;;;1.73;1.00;;;9.40;99.90;;;;;;5050766;28;20205;-70
2021/05/17 00:23:06;;;;;;;1.20;0.90;;;9.30;99.90;;;;;;5050471;28;20229;-70
2021/05/17 00:25:32;;;;;;;2.22;1.00;;;9.30;99.90;;;;;;5050495;28;20254;-69
2021/05/17 00:27:59;;;;;;;1.25;1.00;;;9.30;99.90;;;;;;5050275;28;20208;-70
2021/05/17 00:30:28;;;;;;;2.03;1.48;;;9.30;99.90;;;;;;5050523;28;20244;-69
2021/05/17 00:32:58;;;;;;;1.10;1.00;;;9.20;99.90;;;;;;5050246;28;20235;-70
2021/05/17 00:35:25;;;;;;;1.25;0.90;;;9.30;99.90;;;;;;5050723;28;20300;-71
2021/05/17 00:37:51;;;;;;;1.75;1.27;;;9.30;99.90;;;;;;5049646;28;20624;-70
2021/05/17 00:40:19;;;;;;;1.33;1.10;;;9.30;99.90;;;;;;5050519;28;20205;-70
2021/05/17 00:42:47;;;;;;;3.70;1.13;;;9.30;99.90;;;;;;5051014;28;20221;-70
2021/05/17 00:45:15;;;;;;;0.90;0.80;;;9.30;99.90;;;;;;5051546;28;20205;-69
2021/05/17 00:47:43;;;;;;;1.52;1.08;;;9.30;99.90;;;;;;5050209;28;20686;-70
2021/05/17 00:50:13;;;;;;;2.45;0.90;;;9.30;99.90;;;;;;5050116;28;20220;-70
2021/05/17 00:52:40;;;;;;;2.75;1.10;;;9.30;99.90;;;;;;5050480;28;20640;-70
2021/05/17 00:55:08;;;;;;;3.83;1.35;;;9.30;99.90;;;;;;5050351;28;20201;-70
2021/05/17 00:57:34;;;;;;;1.05;0.90;;;9.30;99.90;;;;;;5050634;28;20201;-70
2021/05/17 01:00:04;;;;;;;1.92;0.98;;;9.30;99.90;;;;;;5050304;28;20197;-70
2021/05/17 01:02:30;;;;;;;1.20;0.98;;;9.30;99.90;;;;;;5050590;28;20217;-70
2021/05/17 01:04:57;;;;;;;1.20;0.90;;;9.30;99.90;;;;;;5050664;28;20208;-70
2021/05/17 01:07:26;;;;;;;2.08;1.15;;;9.20;99.90;;;;;;5050441;28;20546;-70
2021/05/17 01:09:56;;;;;;;2.42;1.10;;;9.20;99.90;;;;;;5051073;28;20232;-70
2021/05/17 01:12:24;;;;;;;1.67;1.00;;;9.20;99.90;;;;;;5051215;28;20220;-70
2021/05/17 01:14:55;;;;;;;2.15;1.00;;;9.20;99.90;;;;;;5051144;28;20251;-71
2021/05/17 01:17:22;;;;;;;1.55;0.93;;;9.20;99.90;;;;;;5051439;28;20210;-70
2021/05/17 01:20:02;;;;;;;1.42;1.02;;;9.10;99.90;;;;;;5050410;28;20224;-69
2021/05/17 01:22:37;;;;;;;2.08;1.10;;;9.10;99.90;;;;;;5051931;28;20251;-71
2021/05/17 01:25:06;;;;;;;2.20;1.00;;;9.10;99.90;;;;;;5051061;28;20207;-70
2021/05/17 01:27:34;;;;;;;1.20;0.90;;;9.10;99.90;;;;;;5050957;28;20212;-70
2021/05/17 01:30:01;;;;;;;1.40;1.00;;;9.10;99.90;;;;;;5049849;28;20225;-70
2021/05/17 01:32:27;;;;;;;2.03;1.60;;;9.10;99.90;;;;;;5050071;28;20240;-70
2021/05/17 01:34:55;;;;;;;1.90;1.10;;;9.10;99.90;;;;;;5050012;28;20205;-69
2021/05/17 01:37:23;;;;;;;2.00;1.00;;;9.10;99.90;;;;;;5049877;28;20204;-70
2021/05/17 01:39:53;;;;;;;2.03;1.20;;;9.10;99.90;;;;;;5049949;28;20644;-69
2021/05/17 01:42:21;;;;;;;1.73;1.10;;;9.10;99.90;;;;;;5050000;28;20235;-70
2021/05/17 01:44:47;;;;;;;1.95;1.02;;;9.20;99.90;;;;;;5050491;28;20225;-70
2021/05/17 01:47:17;;;;;;;2.80;1.33;;;9.10;99.90;;;;;;5050202;28;20213;-71
2021/05/17 01:49:45;;;;;;;1.77;1.20;;;9.10;99.90;;;;;;5052679;28;20657;-69
2021/05/17 01:52:13;;;;;;;2.15;1.35;;;9.10;99.90;;;;;;5053706;28;20290;-69
2021/05/17 01:54:42;;;;;;;3.92;1.08;;;9.10;99.90;;;;;;5053273;28;20569;-69
2021/05/17 01:57:09;;;;;;;1.55;0.90;;;9.10;99.90;;;;;;5053348;28;20205;-70
2021/05/17 01:59:36;;;;;;;1.70;0.80;;;9.10;99.90;;;;;;5052820;28;20205;-69
2021/05/17 02:02:03;;;;;;;1.23;0.95;;;9.20;99.90;;;;;;5053115;28;20808;-70
2021/05/17 02:04:29;;;;;;;3.10;1.52;;;9.20;99.90;;;;;;5053095;28;20204;-70
2021/05/17 02:06:55;;;;;;;2.38;1.05;;;9.10;99.90;;;;;;5052775;28;20201;-70
2021/05/17 02:09:25;;;;;;;1.42;1.13;;;9.10;99.90;;;;;;5052736;28;20286;-70
2021/05/17 02:11:52;;;;;;;2.28;1.20;;;9.10;99.90;;;;;;5052911;28;20216;-70
2021/05/17 02:14:21;;;;;;;1.80;0.93;;;9.10;99.90;;;;;;5053167;28;20212;-70
2021/05/17 02:16:49;;;;;;;1.20;0.80;;;9.10;99.90;;;;;;5052850;28;20216;-69
2021/05/17 02:19:20;;;;;;;1.20;0.90;;;9.10;99.90;;;;;;5052613;28;20209;-70
2021/05/17 02:21:47;;;;;;;1.45;1.00;;;9.10;99.90;;;;;;5053044;28;20205;-69
2021/05/17 02:24:15;;;;;;;1.15;1.00;;;9.00;99.90;;;;;;5052539;28;20263;-69
2021/05/17 02:26:41;;;;;;;1.75;1.10;;;9.00;99.90;;;;;;5052800;28;20205;-69
2021/05/17 02:29:08;;;;;;;1.02;0.93;;;9.00;99.90;;;;;;5052237;28;20825;-69
2021/05/17 02:31:35;;;;;;;0.80;0.77;;;8.90;99.90;;;;;;5052809;28;20275;-68
2021/05/17 02:34:03;;;;;;;1.25;0.95;;;8.80;99.90;;;;;;5052586;28;20233;-70
2021/05/17 02:36:29;;;;;;;1.52;0.90;;;8.90;99.90;;;;;;5052545;28;20255;-69
2021/05/17 02:38:56;;;;;;;2.15;1.10;;;8.80;99.90;;;;;;5052168;28;20235;-69
2021/05/17 02:41:23;;;;;;;1.25;1.13;;;8.90;99.90;;;;;;5052503;28;20647;-70
2021/05/17 02:43:50;;;;;;;2.70;0.90;;;8.90;99.90;;;;;;5052383;28;20221;-71
2021/05/17 02:46:17;;;;;;;1.48;0.90;;;8.90;99.90;;;;;;5052615;28;20205;-71
2021/05/17 02:48:44;;;;;;;2.50;0.90;;;8.80;99.90;;;;;;5052000;28;20221;-71
2021/05/17 02:51:13;;;;;;;1.25;0.80;;;8.80;99.90;;;;;;5052288;28;20201;-71
2021/05/17 02:54:22;;;;;;;2.08;0.90;;;8.70;99.90;;;;;;5052024;28;20232;-71
2021/05/17 02:57:10;;;;;;;1.05;0.88;;;8.70;99.90;;;;;;5052260;28;20204;-71
2021/05/17 03:00:13;;;;;;;2.13;1.13;;;8.70;99.90;;;;;;5051412;28;20203;-70
2021/05/17 03:02:46;;;;;;;2.15;0.98;;;8.70;99.90;;;;;;5052137;28;20220;-71
2021/05/17 03:05:15;;;;;;;1.05;0.90;;;8.80;99.90;;;;;;5052080;28;20569;-70
2021/05/17 03:07:47;;;;;;;1.42;1.10;;;8.80;99.90;;;;;;5051850;28;20307;-71
2021/05/17 03:10:13;;;;;;;1.17;0.95;;;8.90;99.90;;;;;;5051897;28;20225;-71
2021/05/17 03:12:41;;;;;;;1.85;1.15;;;8.90;99.90;;;;;;5051725;28;20221;-71
2021/05/17 03:15:10;;;;;;;2.22;0.90;;;8.90;99.90;;;;;;5051775;28;20209;-71
2021/05/17 03:17:37;;;;;;;1.15;0.90;;;8.90;99.90;;;;;;5051720;28;20197;-71
2021/05/17 03:20:05;;;;;;;1.42;0.93;;;8.90;99.90;;;;;;5051744;28;20193;-70
2021/05/17 03:22:32;;;;;;;2.20;1.10;;;8.90;99.90;;;;;;5051737;28;20217;-70
2021/05/17 03:25:02;;;;;;;2.33;1.20;;;8.90;99.90;;;;;;5051652;28;20204;-71
2021/05/17 03:27:29;;;;;;;0.80;0.70;;;8.90;99.90;;;;;;5051677;28;20555;-71
2021/05/17 03:29:56;;;;;;;2.13;0.90;;;8.80;99.90;;;;;;5051087;28;20221;-70
2021/05/17 03:32:24;;;;;;;4.70;0.95;;;8.80;99.90;;;;;;5051390;28;20235;-71
2021/05/17 03:34:51;;;;;;;1.35;0.90;;;8.80;99.90;;;;;;5051007;28;20205;-70
2021/05/17 03:37:17;;;;;;;1.70;0.80;;;8.80;99.90;;;;;;5054772;28;20193;-71
2021/05/17 03:39:44;;;;;;;1.70;1.02;;;8.70;99.90;;;;;;5070479;28;20189;-71
2021/05/17 03:42:11;;;;;;;2.05;1.08;;;8.80;99.90;;;;;;5070977;28;20952;-71
2021/05/17 03:44:38;;;;;;;1.83;1.00;;;8.70;99.90;;;;;;5071111;28;20706;-71
2021/05/17 03:47:04;;;;;;;0.80;0.70;;;8.70;99.90;;;;;;5070630;28;20203;-71
2021/05/17 03:49:31;;;;;;;1.00;0.80;;;8.70;99.90;;;;;;5070646;28;21038;-71
2021/05/17 03:51:57;;;;;;;1.40;0.90;;;8.70;99.90;;;;;;5069971;28;20992;-70
2021/05/17 03:54:23;;;;;;;1.38;1.00;;;8.70;99.90;;;;;;5070567;28;20196;-70
2021/05/17 03:56:50;;;;;;;1.10;0.90;;;8.70;99.90;;;;;;5070729;28;20283;-69
2021/05/17 03:59:17;;;;;;;1.13;0.80;;;8.70;99.90;;;;;;5069155;28;20207;-68
2021/05/17 04:01:45;;;;;;;2.58;1.00;;;8.70;99.90;;;;;;5071078;28;20304;-68
2021/05/17 04:04:12;;;;;;;1.20;0.88;;;8.80;99.90;;;;;;5071108;28;20789;-68
2021/05/17 04:06:45;;;;;;;1.38;0.80;;;8.80;99.90;;;;;;5070933;28;20249;-69
2021/05/17 04:14:40;;;;;;;1.65;1.02;;;8.90;99.90;;;;;;5070835;28;20234;-69
2021/05/17 04:17:06;;;;;;;1.90;0.90;;;8.90;99.90;;;;;;5070596;28;20204;-69
2021/05/17 04:19:32;;;;;;;1.80;0.90;;;8.90;99.90;;;;;;5070517;28;20197;-69
2021/05/17 04:21:59;;;;;;;3.08;1.10;;;8.80;99.90;;;;;;5069727;28;20215;-69
2021/05/17 04:24:25;;;;;;;1.30;0.90;;;8.80;99.90;;;;;;5069143;28;20678;-68
2021/05/17 04:26:51;;;;;;;1.60;0.90;;;8.80;99.90;;;;;;5070052;28;20200;-68
2021/05/17 04:29:18;;;;;;;1.60;1.05;;;8.90;99.90;;;;;;5069696;28;20262;-69
2021/05/17 04:31:46;;;;;;;1.50;1.20;;;9.00;99.90;;;;;;5060538;28;20265;-68
2021/05/17 04:34:12;;;;;;;4.30;1.40;;;9.10;99.90;;;;;;5060870;28;20220;-68
2021/05/17 04:36:38;;;;;;;0.93;0.80;;;9.10;99.90;;;;;;5056379;28;20197;-68
2021/05/17 04:39:05;;;;;;;1.75;1.20;;;9.10;99.90;;;;;;5050572;28;20550;-68
2021/05/17 04:41:31;;;;;;;1.65;1.00;;;9.00;99.90;;;;;;5050304;28;20304;-68
2021/05/17 04:43:58;;;;;;;3.42;1.05;;;9.00;99.90;;;;;;5050589;28;20221;-69
2021/05/17 04:46:24;;;;;;;1.00;0.90;;;9.00;99.90;;;;;;5050184;28;20197;-68
2021/05/17 04:48:51;;;;;;;1.25;1.15;;;9.00;99.90;;;;;;5050084;28;20229;-68
2021/05/17 04:51:17;;;;;;;2.35;1.00;;;9.10;99.90;;;;;;5050458;28;20262;-68
2021/05/17 04:53:44;;;;;;;3.35;1.73;;;9.10;99.90;;;;;;5066265;28;20228;-68
2021/05/17 04:56:10;;;;;;;1.98;1.10;;;9.00;99.90;;;;;;5070550;28;20211;-68
2021/05/17 04:58:36;;;;;;;0.93;0.80;;;9.00;99.90;;;;;;5069649;28;20200;-68
2021/05/17 05:01:03;;;;;;;1.63;0.90;;;9.00;99.90;;;;;;5070366;28;20237;-68
2021/05/17 05:03:29;;;;;;;3.45;0.93;;;9.00;99.90;;;;;;5069954;28;20227;-68
2021/05/17 05:05:58;;;;;;;1.17;0.70;;;9.10;99.90;;;;;;5070271;28;20209;-68
2021/05/17 05:08:24;;;;;;;1.15;0.82;;;9.00;99.90;;;;;;5069917;28;20204;-68
2021/05/17 05:10:50;;;;;;;1.75;1.00;;;9.00;99.90;;;;;;5070012;28;20703;-68
2021/05/17 05:13:16;;;;;;;2.03;0.70;;;9.00;99.90;;;;;;5070313;28;20586;-68
2021/05/17 05:15:43;;;;;;;1.67;0.90;;;9.00;99.90;;;;;;5069838;28;20257;-68
2021/05/17 05:18:09;;;;;;;1.20;0.93;;;9.10;99.90;;;;;;5069961;28;20197;-68
2021/05/17 05:20:36;;;;;;;1.08;0.70;;;9.20;99.90;;;;;;5069839;28;20287;-68
2021/05/17 05:23:04;;;;;;;2.15;0.82;;;9.30;99.90;;;;;;5070500;28;20243;-67
2021/05/17 05:25:43;;;;;;;1.65;0.85;;;9.30;99.90;;;;;;5073765;28;20200;-68
2021/05/17 05:28:09;;;;;;;0.90;0.70;;;9.50;99.90;;;;;;5073140;28;20196;-68
2021/05/17 05:30:48;;;;;;;0.98;0.77;;;9.60;99.90;;;;;;5073647;28;20224;-68
2021/05/17 05:33:15;;;;;;;1.00;0.82;;;9.70;99.90;;;;;;5073589;28;20235;-68
2021/05/17 05:35:43;;;;;;;0.93;0.82;;;9.70;99.90;;;;;;5073544;28;20676;-68
2021/05/17 05:38:10;;;;;;;1.00;0.80;;;9.80;99.90;;;;;;5073475;28;20573;-68
2021/05/17 05:40:36;;;;;;;1.88;0.90;;;9.80;99.90;;;;;;5073447;28;20200;-68
2021/05/17 05:43:03;;;;;;;1.65;1.00;;;9.80;99.90;;;;;;5073664;28;20232;-68
2021/05/17 05:45:31;;;;;;;1.65;0.73;;;9.80;99.90;;;;;;5073181;28;20204;-68
2021/05/17 05:47:57;;;;;;;1.67;0.95;;;9.70;99.90;;;;;;5073231;28;20624;-68
2021/05/17 05:50:24;;;;;;;0.80;0.70;;;9.80;99.90;;;;;;5071883;28;20225;-67
2021/05/17 05:52:50;;;;;;;0.80;0.70;;;9.90;99.90;;;;;;5072697;28;20225;-68
2021/05/17 05:55:17;;;;;;;1.30;0.85;;;10.10;99.90;;;;;;5073494;28;20209;-68
2021/05/17 05:57:44;;;;;;;4.15;0.80;;;10.20;99.90;;;;;;5072834;28;20204;-68
2021/05/17 06:00:13;;;;;;;1.73;0.90;;;10.30;99.90;;;;;;5073315;28;20782;-68
2021/05/17 06:02:40;;;;;;;2.25;1.00;;;10.30;99.90;;;;;;5072791;28;20220;-68
2021/05/17 06:05:07;;;;;;;1.15;1.02;;;10.30;99.90;;;;;;5073343;28;20206;-68
2021/05/17 06:07:34;;;;;;;0.80;0.70;;;10.30;99.90;;;;;;5072682;28;20200;-68
2021/05/17 06:10:00;;;;;;;1.15;0.90;;;10.20;99.90;;;;;;5072915;28;20224;-68
2021/05/17 06:12:28;;;;;;;1.10;0.93;;;10.20;99.90;;;;;;5072810;28;20320;-68
2021/05/17 06:14:59;;;;;;;2.60;0.98;;;10.30;99.90;;;;;;5072781;28;20674;-69
2021/05/17 06:17:26;;;;;;;1.10;1.00;;;10.30;99.90;;;;;;5072917;28;20242;-68
2021/05/17 06:19:54;;;;;;;1.00;0.70;;;10.30;99.90;;;;;;5072434;28;20265;-69
2021/05/17 06:22:21;;;;;;;0.90;0.75;;;10.40;99.90;;;;;;5072977;28;20221;-69
2021/05/17 06:24:48;;;;;;;1.95;0.93;;;10.50;99.90;;;;;;5072805;28;20211;-69
2021/05/17 06:27:15;;;;;;;1.42;0.75;;;10.60;99.90;;;;;;5072662;28;20262;-69
2021/05/17 06:29:44;;;;;;;2.08;0.80;;;10.70;99.90;;;;;;5072325;28;20223;-69
2021/05/17 06:32:12;;;;;;;1.85;1.50;;;10.80;99.90;;;;;;5072337;28;20271;-68
2021/05/17 06:34:40;;;;;;;2.85;1.10;;;10.90;99.90;;;;;;5072037;28;20750;-69
2021/05/17 06:37:06;;;;;;;0.80;0.70;;;11.00;99.90;;;;;;5072638;28;20574;-69
2021/05/17 06:39:33;;;;;;;1.30;0.80;;;11.10;99.90;;;;;;5072119;28;20566;-69
2021/05/17 06:41:59;;;;;;;3.08;0.80;;;11.10;99.90;;;;;;5072827;28;20208;-69
2021/05/17 06:44:26;;;;;;;1.08;0.77;;;11.20;99.90;;;;;;5072159;28;20200;-68
2021/05/17 06:46:53;;;;;;;2.00;0.90;;;11.10;99.90;;;;;;5072153;28;20258;-68
2021/05/17 06:49:21;;;;;;;1.10;0.90;;;11.10;99.90;;;;;;5069806;28;20274;-69
2021/05/17 06:51:48;;;;;;;1.63;1.00;;;11.10;99.90;;;;;;5071730;28;20200;-68
2021/05/17 06:54:19;;;;;;;2.20;0.95;;;10.90;99.90;;;;;;5071927;28;20200;-68
2021/05/17 06:56:51;;;;;;;1.63;1.33;;;10.90;99.90;;;;;;5071548;28;20197;-69
2021/05/17 06:59:19;;;;;;;3.45;1.23;;;10.90;99.90;;;;;;5071683;28;20675;-68
2021/05/17 07:01:46;;;;;;;1.50;0.90;;;10.90;99.90;;;;;;5066795;28;20204;-68
2021/05/17 07:04:15;;;;;;;1.40;0.90;;;10.80;99.90;;;;;;5068296;28;20741;-68
2021/05/17 07:06:48;;;;;;;1.20;1.10;;;10.80;99.90;;;;;;5068077;28;20193;-68
2021/05/17 07:12:03;;;;;;;2.35;0.90;;;10.80;99.90;;;;;;5070328;28;20200;-68
2021/05/17 07:14:29;;;;;;;2.30;1.02;;;10.90;99.90;;;;;;5070392;28;20882;-69
2021/05/17 07:16:55;;;;;;;1.38;0.85;;;11.00;99.90;;;;;;5069838;28;20713;-69
2021/05/17 07:19:22;;;;;;;1.80;0.98;;;11.00;99.90;;;;;;5070118;28;20555;-69
2021/05/17 07:24:33;;;;;;;1.23;0.80;;;10.90;99.90;;;;;;5062389;28;20207;-68
2021/05/17 07:26:59;;;;;;;2.15;0.90;;;11.00;99.90;;;;;;5058885;28;20205;-68
2021/05/17 07:29:26;;;;;;;2.25;1.02;;;11.10;99.90;;;;;;5057313;28;20220;-68
2021/05/17 07:31:52;;;;;;;1.10;0.90;;;11.20;99.90;;;;;;5068409;28;20735;-68
2021/05/17 07:34:20;;;;;;;1.30;0.98;;;11.50;99.90;;;;;;5060047;28;20211;-68
2021/05/17 07:36:47;;;;;;;1.77;0.90;;;11.80;99.90;;;;;;5068867;28;20204;-68
2021/05/17 07:39:15;;;;;;;0.80;0.75;;;12.20;99.90;;;;;;5069479;28;20580;-68
2021/05/17 07:41:41;;;;;;;1.13;0.80;;;12.40;99.90;;;;;;5069694;28;20289;-69
2021/05/17 07:44:09;;;;;;;1.30;0.90;;;12.40;99.90;;;;;;5069789;28;20259;-68
2021/05/17 07:46:35;;;;;;;2.42;0.80;;;12.50;99.90;;;;;;5067612;28;20710;-69
2021/05/17 07:51:46;;;;;;;1.25;1.00;;;12.60;99.90;;;;;;5069150;28;20698;-68
2021/05/17 07:54:15;;;;;;;2.17;0.95;;;12.50;99.90;;;;;;5069838;28;20723;-68
2021/05/17 07:56:42;;;;;;;1.92;0.70;;;12.30;99.90;;;;;;5057066;28;20574;-68
2021/05/17 07:59:09;;;;;;;2.13;0.90;;;12.20;99.90;;;;;;5049401;28;20335;-68
2021/05/17 08:01:36;;;;;;;2.08;0.80;;;12.20;99.90;;;;;;5061100;28;20512;-67
2021/05/17 08:04:02;;;;;;;1.15;0.85;;;12.20;99.90;;;;;;5069536;28;20566;-68
2021/05/17 08:06:29;;;;;;;1.48;0.80;;;12.20;99.90;;;;;;5068929;28;20207;-68
2021/05/17 08:08:56;;;;;;;1.48;0.95;;;12.30;99.90;;;;;;5069536;28;20947;-68
2021/05/17 08:11:22;;;;;;;3.10;0.80;;;12.40;99.90;;;;;;5069700;28;20690;-69
2021/05/17 08:13:49;;;;;;;1.30;0.90;;;12.60;99.90;;;;;;5069465;28;20485;-68
2021/05/17 08:16:15;;;;;;;0.98;0.88;;;12.80;99.90;;;;;;5056267;28;20197;-69
2021/05/17 08:18:42;;;;;;;1.53;1.20;;;13.10;99.90;;;;;;5053650;28;20200;-69
2021/05/17 08:21:09;;;;;;;1.07;0.83;;;13.30;99.90;;;;;;5067698;28;20455;-69
2021/05/17 08:23:35;;;;;;;0.87;0.70;;;13.40;99.90;;;;;;5068324;28;20487;-69
2021/05/17 08:26:05;;;;;;;1.23;0.87;;;13.30;99.90;;;;;;5068879;28;20474;-68
2021/05/17 08:28:31;;;;;;;4.93;1.03;;;13.40;99.90;;;;;;5068834;28;20469;-68
2021/05/17 08:30:58;;;;;;;1.83;0.90;;;13.50;99.90;;;;;;5068255;28;21103;-68
2021/05/17 08:33:25;;;;;;;2.77;0.80;;;13.50;99.90;;;;;;5068367;28;21035;-68
2021/05/17 08:35:51;;;;;;;0.93;0.70;;;13.60;99.90;;;;;;5067811;28;20560;-68
2021/05/17 08:38:18;;;;;;;3.30;1.30;;;13.60;99.90;;;;;;5068958;28;20561;-68
2021/05/17 08:40:46;;;;;;;3.80;1.00;;;13.60;99.90;;;;;;5068857;28;20875;-68
2021/05/17 08:43:13;;;;;;;1.90;0.93;;;13.70;99.90;;;;;;5069195;28;20482;-68
2021/05/17 08:45:40;;;;;;;1.00;0.80;;;13.80;99.90;;;;;;5067884;28;20571;-68
2021/05/17 08:48:07;;;;;;;1.20;0.90;;;13.80;99.90;;;;;;5069115;28;20523;-68
2021/05/17 08:50:34;;;;;;;1.40;0.80;;;13.80;99.90;;;;;;5068214;28;21063;-68
2021/05/17 08:53:00;;;;;;;1.10;0.80;;;13.70;99.90;;;;;;5069056;28;20478;-68
2021/05/17 08:55:27;;;;;;;2.23;1.00;;;13.50;99.90;;;;;;5068474;28;20458;-68
2021/05/17 08:57:53;;;;;;;2.27;1.10;;;13.50;99.90;;;;;;5070420;28;20458;-68
2021/05/17 09:00:23;;;;;;;1.20;0.70;;;13.30;99.90;;;;;;5073027;28;20465;-68
2021/05/17 09:02:49;;;;;;;1.70;1.00;;;13.00;99.90;;;;;;5072927;28;20509;-68
2021/05/17 09:05:19;;;;;;;0.90;0.80;;;12.60;99.90;;;;;;5073048;28;20459;-68
2021/05/17 09:07:47;;;;;;;2.47;1.10;;;12.40;99.90;;;;;;5071858;28;20603;-68
2021/05/17 09:10:18;;;;;;;1.90;0.90;;;12.50;99.90;;;;;;5072888;28;20571;-68
2021/05/17 09:12:56;;;;;;;2.97;1.00;;;12.70;99.90;;;;;;5072524;28;20487;-68
2021/05/17 09:15:29;;;;;;;1.03;0.90;;;12.80;99.90;;;;;;5072166;28;20461;-68
2021/05/17 09:17:56;;;;;;;3.40;0.90;;;12.80;99.90;;;;;;5072622;28;20541;-69
2021/05/17 09:20:23;;;;;;;1.30;0.90;;;12.90;99.90;;;;;;5073025;28;20211;-68
2021/05/17 09:23:03;;;;;;;1.50;1.05;;;13.30;99.90;;;;;;5072244;28;20486;-68
2021/05/17 09:25:30;;;;;;;1.37;1.00;;;13.70;99.90;;;;;;5071693;28;20604;-68
2021/05/17 09:28:01;;;;;;;3.17;1.10;;;14.00;99.90;;;;;;5071034;28;20462;-68
2021/05/17 09:30:44;;;;;;;3.50;1.17;;;14.40;99.90;;;;;;5072151;28;20516;-68
2021/05/17 09:33:14;;;;;;;1.57;1.00;;;14.50;99.90;;;;;;5072802;28;20520;-68
2021/05/17 09:35:43;;;;;;;2.13;1.20;;;14.20;99.90;;;;;;5061665;28;20490;-68
2021/05/17 09:38:21;;;;;;;1.27;0.90;;;14.00;99.90;;;;;;5072401;28;20464;-68
2021/05/17 09:40:58;;;;;;;1.70;1.20;;;13.60;99.90;;;;;;5070105;28;20459;-68
2021/05/17 09:43:25;;;;;;;1.00;0.90;;;13.20;99.90;;;;;;5072206;28;20482;-69
2021/05/17 09:45:52;;;;;;;1.83;0.90;;;12.90;99.90;;;;;;5070715;28;21026;-68
2021/05/17 09:48:20;;;;;;;1.35;0.90;;;12.80;99.90;;;;;;5071918;28;20212;-69
2021/05/17 09:51:12;;;;;;;2.00;0.98;;;12.90;99.90;;;;;;5071878;28;20216;-69
2021/05/17 09:53:41;;;;;;;1.52;1.15;;;13.30;99.90;;;;;;5052148;28;20630;-69
2021/05/17 09:56:09;;;;;;;1.83;1.10;;;13.50;99.90;;;;;;5070237;28;20200;-68
2021/05/17 09:58:37;;;;;;;1.40;0.90;;;13.80;99.90;;;;;;5071062;28;20485;-68
2021/05/17 10:01:16;;;;;;;1.10;0.93;;;14.00;99.90;;;;;;5071698;28;20844;-68
2021/05/17 10:03:45;;;;;;;2.77;1.13;;;14.10;99.90;;;;;;5071534;28;20482;-69
2021/05/17 10:06:13;;;;;;;1.25;0.80;;;14.10;99.90;;;;;;5070792;28;20461;-68
2021/05/17 10:08:40;;;;;;;1.25;0.75;;;14.10;99.90;;;;;;5062852;28;20325;-69
2021/05/17 10:11:07;;;;;;;4.03;1.30;;;14.10;99.90;;;;;;5070262;28;20216;-68
2021/05/17 10:13:35;;;;;;;1.90;0.97;;;14.10;99.90;;;;;;5071259;28;20487;-68
2021/05/17 10:16:06;;;;;;;1.23;1.03;;;14.20;99.90;;;;;;5070519;28;21004;-69
2021/05/17 10:18:34;;;;;;;1.73;0.90;;;14.30;99.90;;;;;;5071004;28;20806;-70
2021/05/17 10:21:01;;;;;;;2.03;0.80;;;14.70;99.90;;;;;;5066030;28;20461;-70
2021/05/17 10:23:28;;;;;;;3.00;1.13;;;14.90;99.90;;;;;;5067222;28;20797;-69
2021/05/17 10:26:06;;;;;;;1.00;0.80;;;15.00;99.90;;;;;;5070257;28;20948;-69
2021/05/17 10:28:33;;;;;;;3.17;1.00;;;14.80;99.90;;;;;;5068790;28;20455;-70
2021/05/17 10:31:07;;;;;;;1.23;0.97;;;14.40;99.90;;;;;;5070579;28;20851;-68
2021/05/17 10:33:35;;;;;;;4.33;1.43;;;14.00;99.90;;;;;;5068794;28;20482;-67
2021/05/17 10:36:02;;;;;;;1.37;0.90;;;13.70;99.90;;;;;;5070453;28;20486;-68
2021/05/17 10:38:35;;;;;;;1.93;1.00;;;13.60;99.90;;;;;;5067335;28;20454;-68
2021/05/17 10:41:21;;;;;;;2.60;1.10;;;13.70;99.90;;;;;;5059122;28;20489;-68
2021/05/17 10:43:57;;;;;;;3.37;1.03;;;14.00;99.90;;;;;;5069296;28;21116;-68
2021/05/17 10:46:38;;;;;;;2.80;0.93;;;14.50;99.90;;;;;;5071379;28;20457;-67
2021/05/17 10:49:26;;;;;;;2.03;1.10;;;14.90;99.90;;;;;;5071350;28;20455;-68
2021/05/17 10:51:54;;;;;;;1.67;0.97;;;15.20;99.90;;;;;;5069152;28;20461;-68
2021/05/17 10:54:28;;;;;;;2.43;1.00;;;15.70;99.90;;;;;;5071640;28;20462;-68
2021/05/17 10:56:57;;;;;;;2.13;1.00;;;16.10;99.90;;;;;;5069551;28;20464;-68
2021/05/17 11:02:16;;;;;;;2.43;1.20;;;16.20;99.90;;;;;;5069670;28;20968;-68
2021/05/17 11:04:55;;;;;;;1.37;1.00;;;16.10;99.90;;;;;;5071563;28;20455;-68
2021/05/17 11:07:29;;;;;;;1.20;0.97;;;15.90;99.90;;;;;;5071445;28;20461;-67
2021/05/17 11:10:21;;;;;;;1.60;1.10;;;15.40;99.90;;;;;;5069127;28;20485;-68
2021/05/17 11:13:08;;;;;;;4.23;1.20;;;15.00;99.90;;;;;;5070413;28;20474;-68
2021/05/17 11:15:59;;;;;;;2.07;1.20;;;14.90;99.90;;;;;;5068630;28;20455;-68
2021/05/17 11:18:40;;;;;;;1.00;0.90;;;14.70;99.90;;;;;;5070067;28;20498;-67
2021/05/17 11:21:21;;;;;;;2.83;1.00;;;14.50;99.90;;;;;;5069924;28;20454;-68
2021/05/17 11:24:06;;;;;;;3.00;1.00;;;14.20;99.90;;;;;;5070293;28;20810;-67
2021/05/17 11:26:49;;;;;;;1.70;1.03;;;14.30;99.90;;;;;;5070282;28;20545;-67
2021/05/17 11:29:28;;;;;;;0.93;0.80;;;14.40;99.90;;;;;;5067750;28;20465;-68
2021/05/17 11:32:08;;;;;;;1.10;0.90;;;14.20;99.90;;;;;;5067706;28;20470;-68
2021/05/17 11:34:35;;;;;;;1.37;0.80;;;14.00;99.90;;;;;;5068331;28;20462;-68
2021/05/17 11:37:13;;;;;;;2.20;0.97;;;13.70;99.90;;;;;;5070663;28;20972;-68
2021/05/17 11:39:41;;;;;;;1.33;1.10;;;13.20;99.90;;;;;;5070771;28;20466;-67
2021/05/17 11:42:09;;;;;;;1.00;0.80;;;13.20;99.90;;;;;;5070457;28;20502;-68
2021/05/17 11:44:39;;;;;;;1.30;0.90;;;13.50;99.90;;;;;;5070702;28;20465;-68
2021/05/17 11:47:08;;;;;;;1.30;0.90;;;13.80;99.90;;;;;;5066794;28;20915;-68
2021/05/17 11:49:36;;;;;;;2.60;1.13;;;14.00;99.90;;;;;;5064410;28;20493;-68
2021/05/17 11:52:05;;;;;;;1.50;1.00;;;14.00;99.90;;;;;;5069859;28;20543;-67
2021/05/17 11:54:37;;;;;;;2.17;1.10;;;14.20;99.90;;;;;;5069359;28;20458;-68
2021/05/17 11:57:05;;;;;;;1.93;1.07;;;14.60;99.90;;;;;;5069285;28;20459;-67
2021/05/17 11:59:33;;;;;;;4.20;0.90;;;14.70;99.90;;;;;;5069714;28;20473;-68
2021/05/17 12:02:01;;;;;;;1.20;0.90;;;15.10;99.90;;;;;;5067393;28;20457;-68
2021/05/17 12:04:29;;;;;;;1.00;0.80;;;15.20;99.90;;;;;;5072512;28;20812;-70
2021/05/17 12:06:57;;;;;;;1.00;0.73;;;15.20;99.90;;;;;;5073551;28;20467;-70
2021/05/17 12:09:32;;;;;;;1.63;0.90;;;15.50;99.90;;;;;;5073509;28;20954;-70
2021/05/17 12:12:00;;;;;;;1.00;0.70;;;15.40;99.90;;;;;;5072764;28;20489;-70
2021/05/17 12:14:28;;;;;;;1.13;0.80;;;15.20;99.90;;;;;;5072457;28;20978;-69
2021/05/17 12:17:11;;;;;;;1.10;0.80;;;15.00;99.90;;;;;;5072667;28;20462;-69
2021/05/17 12:19:38;;;;;;;2.20;0.70;;;15.00;99.90;;;;;;5071032;28;20463;-70
2021/05/17 12:22:08;;;;;;;1.00;0.70;;;15.00;99.90;;;;;;5073365;28;20454;-69
2021/05/17 12:24:35;;;;;;;1.00;0.70;;;15.20;99.90;;;;;;5071287;28;20454;-70
2021/05/17 12:27:04;;;;;;;0.80;0.70;;;15.40;99.90;;;;;;5073923;28;20455;-70
2021/05/17 12:29:55;;;;;;;1.00;0.80;;;15.70;99.90;;;;;;5073198;28;20549;-70
2021/05/17 12:32:24;;;;;;;1.50;0.70;;;16.30;99.90;;;;;;5073303;28;20525;-70
2021/05/17 12:34:56;;;;;;;1.20;0.80;;;16.70;99.50;;;;;;5073513;28;20470;-70
2021/05/17 12:37:25;;;;;;;1.57;0.80;;;16.80;98.60;;;;;;5073491;28;20845;-71
2021/05/17 12:40:10;;;;;;;1.27;0.83;;;16.80;98.20;;;;;;5073346;28;20867;-70
2021/05/17 12:42:38;;;;;;;1.17;0.80;;;16.50;98.80;;;;;;5073286;28;20493;-70
2021/05/17 12:45:06;;;;;;;0.80;0.70;;;16.70;98.60;;;;;;5072813;28;20458;-69
2021/05/17 12:47:37;;;;;;;1.20;0.80;;;16.60;98.50;;;;;;5073140;28;21036;-70
2021/05/17 12:50:04;;;;;;;2.10;0.83;;;16.50;99.60;;;;;;5073286;28;20478;-71
2021/05/17 12:52:33;;;;;;;1.47;0.80;;;16.80;99.20;;;;;;5073115;28;20474;-70
2021/05/17 12:55:17;;;;;;;2.10;0.90;;;17.30;99.60;;;;;;5073354;28;20977;-70
2021/05/17 12:57:45;;;;;;;0.80;0.70;;;17.60;97.40;;;;;;5072796;28;20462;-70
2021/05/17 13:00:13;;;;;;;1.23;0.70;;;17.60;97.30;;;;;;5073078;28;20461;-70
2021/05/17 13:02:40;;;;;;;1.03;0.80;;;17.60;97.30;;;;;;5073757;28;20478;-71
2021/05/17 13:05:07;;;;;;;1.60;0.90;;;17.70;97.20;;;;;;5073530;28;20473;-71
2021/05/17 13:07:34;;;;;;;1.73;0.87;;;17.80;96.40;;;;;;5073611;28;20454;-70
2021/05/17 13:10:00;;;;;;;1.70;0.90;;;17.60;96.40;;;;;;5072813;28;20482;-69
2021/05/17 13:12:26;;;;;;;1.20;0.90;;;17.60;96.80;;;;;;5072865;28;20547;-71
2021/05/17 13:14:53;;;;;;;2.03;0.90;;;17.40;96.30;;;;;;5073868;28;20537;-70
2021/05/17 13:17:19;;;;;;;1.33;0.80;;;17.60;96.50;;;;;;5072520;28;20461;-70